Time;durP1;ratioP1;P1;durP2;ratioP2;P2;SDS_P1;SDS_P2;PMS_P1;PMS_P2;Temp;Humidity;BMP_temperature;BMP_pressure;BME280_temperature;BME280_humidity;BME280_pressure;Samples;Min_cycle;Max_cycle;Signal;HPM_P1;HPM_P2
2024/03/17 00:01:31;;;;;;;27.23;8.13;;;;;;;9.69;100.00;98875.38;4188151;28;20620;-84
2024/03/17 00:03:33;;;;;;;24.63;8.73;;;;;;;9.67;100.00;98872.84;4198991;28;20623;-83
2024/03/17 00:05:37;;;;;;;15.50;8.17;;;;;;;9.66;100.00;98870.34;4202880;28;21188;-83
2024/03/17 00:07:39;;;;;;;25.33;8.23;;;;;;;9.62;100.00;98874.00;4202479;28;20624;-83
2024/03/17 00:09:41;;;;;;;19.57;7.57;;;;;;;9.57;100.00;98865.59;4184686;28;20636;-83
2024/03/17 00:11:45;;;;;;;25.83;6.60;;;;;;;9.51;100.00;98874.56;4171630;28;21237;-83
2024/03/17 00:13:47;;;;;;;21.00;7.63;;;;;;;9.46;100.00;98860.94;4187384;28;20636;-83
2024/03/17 00:15:49;;;;;;;22.40;7.50;;;;;;;9.44;100.00;98872.34;4185650;28;21276;-83
2024/03/17 00:17:50;;;;;;;20.80;7.67;;;;;;;9.40;100.00;98870.84;4215630;28;20734;-84
2024/03/17 00:19:53;;;;;;;20.83;6.97;;;;;;;9.39;100.00;98874.34;4174193;28;20625;-84
2024/03/17 00:21:55;;;;;;;11.83;5.30;;;;;;;9.41;100.00;98880.31;4206001;28;21265;-92
2024/03/17 00:23:58;;;;;;;20.30;5.47;;;;;;;9.41;100.00;98881.19;4167788;28;20637;-92
2024/03/17 00:25:59;;;;;;;24.53;6.60;;;;;;;9.41;100.00;98875.97;4190464;28;21359;-91
2024/03/17 00:28:01;;;;;;;23.00;5.93;;;;;;;9.43;100.00;98883.72;4169405;28;20624;-92
2024/03/17 00:30:08;;;;;;;13.33;5.10;;;;;;;9.43;100.00;98888.91;4199861;28;20655;-92
2024/03/17 00:32:11;;;;;;;14.93;6.17;;;;;;;9.45;100.00;98889.66;4190215;28;20612;-91
2024/03/17 00:34:13;;;;;;;23.03;5.17;;;;;;;9.42;100.00;98885.44;4207402;28;21012;-91
2024/03/17 00:36:15;;;;;;;23.10;5.27;;;;;;;9.39;100.00;98879.56;4182881;28;20616;-88
2024/03/17 00:38:18;;;;;;;36.20;6.53;;;;;;;9.39;100.00;98880.41;4187171;28;20616;-91
2024/03/17 00:40:20;;;;;;;22.87;6.20;;;;;;;9.39;100.00;98879.56;4203112;28;20710;-91
2024/03/17 00:42:22;;;;;;;24.27;5.97;;;;;;;9.36;100.00;98877.13;4186840;28;20628;-91
2024/03/17 00:44:25;;;;;;;25.10;6.20;;;;;;;9.36;100.00;98871.91;4189553;28;21275;-91
2024/03/17 00:46:26;;;;;;;39.50;6.77;;;;;;;9.38;100.00;98865.72;4166953;28;20613;-91
2024/03/17 00:48:29;;;;;;;53.77;7.63;;;;;;;9.38;100.00;98870.94;4173542;28;20628;-90
2024/03/17 00:50:30;;;;;;;26.17;6.80;;;;;;;9.38;100.00;98875.28;4171582;28;20644;-90
2024/03/17 00:52:35;;;;;;;46.57;6.80;;;;;;;9.38;100.00;98872.66;4188422;28;20612;-92
2024/03/17 00:54:37;;;;;;;60.73;7.20;;;;;;;9.40;100.00;98876.06;4185186;28;20624;-91
2024/03/17 00:56:41;;;;;;;42.87;7.43;;;;;;;9.37;100.00;98871.00;4199365;28;21246;-90
2024/03/17 00:58:44;;;;;;;25.40;6.20;;;;;;;9.36;100.00;98869.31;4178794;28;20624;-90
2024/03/17 01:00:47;;;;;;;14.57;5.60;;;;;;;9.37;100.00;98858.00;4172263;28;20617;-92
2024/03/17 01:02:48;;;;;;;23.97;6.33;;;;;;;9.28;100.00;98858.47;4198761;28;21042;-89
2024/03/17 01:04:51;;;;;;;19.07;6.03;;;;;;;9.18;100.00;98854.63;4180753;28;21020;-92
2024/03/17 01:06:52;;;;;;;17.90;6.40;;;;;;;9.13;100.00;98846.22;4183665;28;21423;-90
2024/03/17 01:08:54;;;;;;;9.07;5.30;;;;;;;9.11;100.00;98848.06;4185865;28;20640;-89
2024/03/17 01:10:58;;;;;;;13.00;5.87;;;;;;;9.08;100.00;98853.44;4204011;28;20215;-91
2024/03/17 01:13:00;;;;;;;10.53;5.80;;;;;;;9.04;100.00;98851.88;4204389;28;20626;-92
2024/03/17 01:15:04;;;;;;;15.10;6.20;;;;;;;8.99;100.00;98850.41;4168243;28;20621;-88
2024/03/17 01:17:06;;;;;;;16.97;6.03;;;;;;;8.93;100.00;98843.78;4182667;28;20624;-92
2024/03/17 01:19:08;;;;;;;15.85;6.35;;;;;;;8.88;100.00;98847.50;4170520;28;20624;-91
2024/03/17 01:21:10;;;;;;;15.70;5.60;;;;;;;8.88;100.00;98847.50;4187013;28;20566;-91
2024/03/17 01:23:11;;;;;;;18.13;6.03;;;;;;;8.87;100.00;98851.06;4168676;28;20671;-92
2024/03/17 01:25:15;;;;;;;15.48;5.85;;;;;;;8.85;100.00;98845.06;4185589;28;20620;-91
2024/03/17 01:27:19;;;;;;;14.85;5.75;;;;;;;8.85;100.00;98841.63;4171251;28;20194;-88
2024/03/17 01:29:21;;;;;;;13.68;5.07;;;;;;;8.85;100.00;98833.84;4204745;28;20217;-91
2024/03/17 01:31:22;;;;;;;11.27;5.70;;;;;;;8.81;100.00;98830.56;4190183;28;20212;-90
2024/03/17 01:33:25;;;;;;;14.10;5.40;;;;;;;8.80;100.00;98841.03;4191542;28;20198;-92
2024/03/17 01:35:27;;;;;;;16.30;5.20;;;;;;;8.82;100.00;98833.97;4179823;28;20621;-90
2024/03/17 01:37:31;;;;;;;13.93;4.63;;;;;;;8.80;100.00;98835.81;4165059;28;20629;-92
2024/03/17 01:39:33;;;;;;;10.90;5.80;;;;;;;8.76;100.00;98831.69;4200464;28;20220;-90
2024/03/17 01:41:35;;;;;;;19.77;5.30;;;;;;;8.75;100.00;98825.66;4168759;28;20632;-91
2024/03/17 01:43:38;;;;;;;16.03;5.03;;;;;;;8.73;100.00;98824.03;4185470;28;20627;-91
2024/03/17 01:45:40;;;;;;;11.23;5.35;;;;;;;8.67;100.00;98811.34;4166986;28;20951;-88
2024/03/17 01:47:42;;;;;;;12.90;5.90;;;;;;;8.64;100.00;98819.28;4189082;28;20588;-91
2024/03/17 01:49:44;;;;;;;12.35;5.10;;;;;;;8.61;100.00;98819.44;4173067;28;20237;-88
2024/03/17 01:51:46;;;;;;;9.48;5.35;;;;;;;8.55;100.00;98819.72;4188651;28;20197;-91
2024/03/17 01:53:49;;;;;;;10.75;5.07;;;;;;;8.52;100.00;98810.34;4183161;28;20206;-91
2024/03/17 01:55:50;;;;;;;19.67;5.32;;;;;;;8.52;100.00;98812.09;4184299;28;20197;-92
2024/03/17 01:57:52;;;;;;;11.57;4.75;;;;;;;8.53;100.00;98805.97;4183314;28;20252;-90
2024/03/17 01:59:56;;;;;;;15.95;4.40;;;;;;;8.53;100.00;98816.38;4201256;28;20208;-88
2024/03/17 02:01:58;;;;;;;14.65;4.60;;;;;;;8.51;100.00;98813.00;4164172;28;20213;-91
2024/03/17 02:03:59;;;;;;;8.90;4.15;;;;;;;8.47;100.00;98811.47;4172268;28;20213;-89
2024/03/17 02:06:02;;;;;;;11.68;4.32;;;;;;;8.43;99.47;98809.09;4186013;28;20232;-92
2024/03/17 02:08:04;;;;;;;9.05;4.55;;;;;;;8.42;100.00;98803.06;4204578;28;20201;-91
2024/03/17 02:10:08;;;;;;;7.10;4.32;;;;;;;8.41;99.61;98800.53;4202338;28;20219;-89
2024/03/17 02:12:11;;;;;;;8.60;3.92;;;;;;;8.35;99.63;98796.47;4201143;28;20299;-90
2024/03/17 02:14:14;;;;;;;8.48;4.15;;;;;;;8.31;99.31;98794.91;4185630;28;20197;-90
2024/03/17 02:16:16;;;;;;;11.30;4.93;;;;;;;8.29;100.00;98786.38;4187887;28;21978;-91
2024/03/17 02:18:19;;;;;;;13.30;4.25;;;;;;;8.30;100.00;98788.06;4202852;28;20205;-91
2024/03/17 02:20:24;;;;;;;7.32;3.70;;;;;;;8.28;99.68;98789.88;4183056;28;20241;-90
2024/03/17 02:22:28;;;;;;;12.77;3.72;;;;;;;8.26;100.00;98786.50;4187957;28;20710;-91
2024/03/17 02:24:31;;;;;;;19.30;4.53;;;;;;;8.26;100.00;98786.50;4184407;28;20374;-92
2024/03/17 02:26:34;;;;;;;8.85;4.13;;;;;;;8.25;100.00;98781.38;4204740;28;20207;-91
2024/03/17 02:28:39;;;;;;;16.33;3.90;;;;;;;8.23;100.00;98786.66;4184645;28;20196;-88
2024/03/17 02:30:42;;;;;;;6.93;4.03;;;;;;;8.21;100.00;98785.91;4206064;28;20214;-92
2024/03/17 02:32:43;;;;;;;9.27;4.30;;;;;;;8.19;100.00;98779.91;4170222;28;20215;-90
2024/03/17 02:34:46;;;;;;;10.45;4.38;;;;;;;8.18;100.00;98782.63;4188925;28;20212;-91
2024/03/17 02:36:47;;;;;;;9.60;4.20;;;;;;;8.17;99.98;98784.34;4185271;28;20269;-90
2024/03/17 02:41:10;;;;;;;9.00;4.07;;;;;;;8.17;100.00;98781.75;4190672;28;20205;-90
2024/03/17 02:43:11;;;;;;;7.35;4.10;;;;;;;8.15;100.00;98778.41;4170991;28;20217;-90
2024/03/17 02:45:15;;;;;;;7.28;4.32;;;;;;;8.14;100.00;98774.09;4203234;28;20200;-90
2024/03/17 02:47:19;;;;;;;8.48;4.45;;;;;;;8.12;100.00;98775.13;4204819;28;20238;-90
2024/03/17 02:49:20;;;;;;;7.20;4.00;;;;;;;8.11;100.00;98774.25;4190616;28;20197;-87
2024/03/17 02:51:24;;;;;;;6.85;3.60;;;;;;;8.13;100.00;98782.84;4203151;28;20238;-92
2024/03/17 02:53:26;;;;;;;8.82;3.95;;;;;;;8.12;100.00;98781.16;4171285;28;20205;-90
2024/03/17 02:55:29;;;;;;;7.97;3.70;;;;;;;8.12;100.00;98778.53;4185709;28;20571;-89
2024/03/17 02:57:33;;;;;;;8.65;3.67;;;;;;;8.15;100.00;98773.22;4191453;28;20197;-89
2024/03/17 02:59:34;;;;;;;8.50;3.80;;;;;;;8.18;100.00;98767.03;4189481;28;20223;-91
2024/03/17 03:01:36;;;;;;;14.68;4.43;;;;;;;8.18;100.00;98767.03;4183355;28;20710;-91
2024/03/17 03:03:38;;;;;;;9.27;3.90;;;;;;;8.18;100.00;98767.03;4173571;28;20221;-90
2024/03/17 03:05:41;;;;;;;9.27;4.07;;;;;;;8.16;100.00;98768.84;4187709;28;20713;-91
2024/03/17 03:07:44;;;;;;;8.38;4.40;;;;;;;8.14;100.00;98766.31;4202597;28;20675;-92
2024/03/17 03:09:47;;;;;;;18.52;3.80;;;;;;;8.13;100.00;98764.66;4189396;28;20233;-90
2024/03/17 03:11:51;;;;;;;16.20;4.50;;;;;;;8.14;100.00;98763.72;4202901;28;20197;-90
2024/03/17 03:13:53;;;;;;;7.97;3.97;;;;;;;8.14;99.68;98771.50;4204844;28;20200;-89
2024/03/17 03:15:55;;;;;;;10.50;3.88;;;;;;;8.12;100.00;98767.31;4187370;28;20209;-92
2024/03/17 03:17:59;;;;;;;9.32;4.20;;;;;;;8.07;99.26;98764.91;4182624;28;20198;-91
2024/03/17 03:20:01;;;;;;;9.65;4.20;;;;;;;8.06;100.00;98765.81;4185239;28;20754;-91
2024/03/17 03:22:03;;;;;;;19.85;4.32;;;;;;;8.03;99.76;98763.38;4166990;28;20202;-91
2024/03/17 03:24:06;;;;;;;19.58;4.45;;;;;;;8.05;100.00;98766.72;4181076;28;20210;-92
2024/03/17 03:26:09;;;;;;;8.88;4.18;;;;;;;8.03;100.00;98768.56;4207605;28;20710;-91
2024/03/17 03:28:13;;;;;;;20.38;4.55;;;;;;;8.02;99.89;98761.66;4185386;28;20300;-91
2024/03/17 03:30:16;;;;;;;19.73;4.32;;;;;;;8.01;100.00;98760.00;4202420;28;20216;-88
2024/03/17 03:32:18;;;;;;;21.15;4.95;;;;;;;8.01;100.00;98759.16;4206887;28;20200;-91
2024/03/17 03:34:20;;;;;;;14.88;5.03;;;;;;;8.04;100.00;98764.19;4168910;28;20198;-88
2024/03/17 03:36:23;;;;;;;9.60;4.40;;;;;;;8.03;99.71;98760.75;4184522;28;20228;-91
2024/03/17 03:38:25;;;;;;;21.70;5.40;;;;;;;8.06;100.00;98768.41;4178570;28;20721;-92
2024/03/17 03:40:27;;;;;;;16.02;4.82;;;;;;;8.07;100.00;98762.31;4205630;28;20203;-91
2024/03/17 03:42:29;;;;;;;23.98;5.20;;;;;;;8.10;100.00;98767.38;4189195;28;20233;-91
2024/03/17 03:44:33;;;;;;;14.65;4.78;;;;;;;8.09;100.00;98757.06;4188969;28;20206;-90
2024/03/17 03:46:35;;;;;;;10.88;4.35;;;;;;;8.12;100.00;98757.75;4169151;28;20202;-91
2024/03/17 03:48:40;;;;;;;15.38;5.38;;;;;;;8.09;99.81;98757.06;4191866;28;20204;-90
2024/03/17 03:50:41;;;;;;;10.57;4.30;;;;;;;8.03;98.33;98755.56;4204485;28;20220;-83
2024/03/17 03:52:45;;;;;;;18.27;4.75;;;;;;;7.98;99.50;98757.56;4187638;28;20267;-84
2024/03/17 03:54:47;;;;;;;11.80;4.55;;;;;;;7.97;98.46;98760.22;4218462;27;20388;-84
2024/03/17 03:56:49;;;;;;;18.85;4.60;;;;;;;7.94;100.00;98756.91;4183803;28;20254;-84
2024/03/17 03:58:51;;;;;;;16.17;4.45;;;;;;;7.92;99.03;98756.97;4182906;28;20214;-84
2024/03/17 04:00:54;;;;;;;10.32;4.10;;;;;;;7.91;100.00;98759.66;4170949;28;20243;-83
2024/03/17 04:02:56;;;;;;;15.73;4.00;;;;;;;7.90;100.00;98751.03;4185034;28;20589;-83
2024/03/17 04:04:58;;;;;;;8.80;3.60;;;;;;;7.85;99.53;98754.75;4185154;28;20205;-84
2024/03/17 04:07:01;;;;;;;12.55;4.05;;;;;;;7.82;99.20;98754.88;4198367;28;20353;-83
2024/03/17 04:09:05;;;;;;;9.73;3.80;;;;;;;7.80;98.35;98751.53;4183687;28;20204;-83
2024/03/17 04:11:09;;;;;;;20.95;4.45;;;;;;;7.79;99.39;98750.69;4189140;28;20214;-84
2024/03/17 04:13:10;;;;;;;21.98;4.70;;;;;;;7.83;99.11;98759.19;4221044;28;20696;-83
2024/03/17 04:15:14;;;;;;;15.82;4.00;;;;;;;7.79;98.46;98755.06;4184881;28;20735;-83
2024/03/17 04:17:17;;;;;;;10.52;3.80;;;;;;;7.74;98.56;98751.81;4188156;28;20213;-83
2024/03/17 04:19:19;;;;;;;14.52;4.32;;;;;;;7.70;98.85;98758.09;4169369;28;20201;-84
2024/03/17 04:21:22;;;;;;;12.30;4.53;;;;;;;7.72;99.06;98756.25;4207180;28;20201;-83
2024/03/17 04:23:24;;;;;;;7.18;4.22;;;;;;;7.75;99.77;98753.50;4185743;28;20206;-84
2024/03/17 04:25:27;;;;;;;20.55;5.95;;;;;;;7.76;99.91;98755.22;4173315;28;20206;-85
2024/03/17 04:27:29;;;;;;;21.92;5.28;;;;;;;7.76;99.79;98760.41;4182288;28;20218;-83
2024/03/17 04:29:31;;;;;;;24.45;5.18;;;;;;;7.80;100.00;98759.31;4198784;28;20200;-84
2024/03/17 04:31:33;;;;;;;28.50;4.85;;;;;;;7.83;100.00;98753.97;4183530;28;20592;-84
2024/03/17 04:33:36;;;;;;;29.17;4.93;;;;;;;7.86;100.00;98762.47;4187695;28;21095;-85
2024/03/17 04:35:39;;;;;;;13.65;5.22;;;;;;;7.87;100.00;98760.72;4188214;28;20209;-85
2024/03/17 04:37:42;;;;;;;21.23;4.50;;;;;;;7.91;100.00;98760.50;4170912;28;20588;-84
2024/03/17 04:39:46;;;;;;;13.25;4.32;;;;;;;7.91;100.00;98768.31;4193669;28;20205;-84
2024/03/17 04:41:49;;;;;;;12.90;4.35;;;;;;;7.92;100.00;98766.53;4183876;28;20653;-83
2024/03/17 04:43:53;;;;;;;8.85;4.63;;;;;;;7.94;99.56;98762.09;4201606;28;20215;-84
2024/03/17 04:45:59;;;;;;;11.63;4.13;;;;;;;7.97;100.00;98761.06;4203971;28;20193;-84
2024/03/17 04:48:03;;;;;;;9.10;3.80;;;;;;;7.96;99.32;98765.50;4181259;28;20204;-83
2024/03/17 04:50:07;;;;;;;6.18;3.92;;;;;;;7.94;100.00;98760.38;4182657;28;20240;-84
2024/03/17 04:52:12;;;;;;;6.82;4.40;;;;;;;7.96;99.02;98762.91;4185038;28;20421;-85
2024/03/17 04:54:15;;;;;;;8.10;5.77;;;;;;;7.98;100.00;98780.06;4165395;28;20296;-84
2024/03/17 04:56:17;;;;;;;10.23;4.47;;;;;;;7.98;98.99;98775.72;4162005;28;20641;-84
2024/03/17 04:58:20;;;;;;;10.75;4.55;;;;;;;7.98;99.97;98770.53;4207099;28;20207;-84
2024/03/17 05:00:23;;;;;;;13.73;4.50;;;;;;;7.99;98.82;98772.19;4170435;28;20209;-90
2024/03/17 05:02:26;;;;;;;14.32;4.80;;;;;;;8.00;100.00;98773.06;4188360;28;20647;-90
2024/03/17 05:04:28;;;;;;;7.35;4.85;;;;;;;7.99;99.82;98772.19;4184172;28;20268;-89
2024/03/17 05:06:33;;;;;;;15.30;4.75;;;;;;;7.99;100.00;98774.81;4202853;28;20361;-88
2024/03/17 05:08:35;;;;;;;7.60;4.30;;;;;;;8.01;99.58;98770.41;4201353;28;20226;-92
2024/03/17 05:10:37;;;;;;;8.45;4.40;;;;;;;8.01;100.00;98775.59;4190196;28;20232;-90
2024/03/17 05:12:42;;;;;;;8.95;4.85;;;;;;;8.01;98.79;98774.72;4184857;28;20296;-92
2024/03/17 05:14:44;;;;;;;20.10;5.20;;;;;;;7.99;99.51;98776.56;4200707;28;20797;-89
2024/03/17 05:16:48;;;;;;;15.10;4.75;;;;;;;7.95;100.00;98774.19;4191098;28;20213;-89
2024/03/17 05:18:51;;;;;;;22.63;5.33;;;;;;;7.94;99.52;98775.09;4198586;28;20419;-89
2024/03/17 05:20:59;;;;;;;34.58;5.00;;;;;;;7.95;100.00;98775.00;4184209;28;20702;-91
2024/03/17 05:23:03;;;;;;;10.02;4.25;;;;;;;7.92;98.09;98769.13;4186536;28;20208;-91
2024/03/17 05:25:05;;;;;;;33.47;6.30;;;;;;;7.89;99.11;98764.91;4187525;28;20763;-89
2024/03/17 05:27:09;;;;;;;12.63;4.50;;;;;;;7.86;97.42;98761.63;4205863;28;20282;-87
2024/03/17 05:29:10;;;;;;;19.30;4.50;;;;;;;7.85;97.17;98757.34;4168472;28;20580;-90
2024/03/17 05:31:15;;;;;;;34.42;5.70;;;;;;;7.81;97.65;98751.47;4198559;28;20229;-91
2024/03/17 05:33:17;;;;;;;24.40;5.25;;;;;;;7.73;96.77;98755.34;4197756;28;20205;-90
2024/03/17 05:35:20;;;;;;;20.83;4.45;;;;;;;7.67;97.73;98750.44;4198560;28;20200;-91
2024/03/17 05:37:22;;;;;;;13.23;4.10;;;;;;;7.64;98.07;98750.56;4169866;28;20202;-92
2024/03/17 05:39:27;;;;;;;21.35;4.40;;;;;;;7.63;98.41;98754.91;4168151;28;20281;-90
2024/03/17 05:41:29;;;;;;;10.80;3.97;;;;;;;7.62;99.34;98753.25;4184249;28;20203;-90
2024/03/17 05:43:32;;;;;;;11.82;4.03;;;;;;;7.59;98.25;98755.97;4179903;28;20805;-91
2024/03/17 05:45:35;;;;;;;17.10;4.45;;;;;;;7.57;98.71;98762.97;4188733;28;20200;-88
2024/03/17 05:47:38;;;;;;;16.50;4.70;;;;;;;7.54;99.00;98754.50;4201251;28;20208;-90
2024/03/17 05:49:42;;;;;;;44.08;5.15;;;;;;;7.56;99.78;98760.44;4204842;28;20696;-90
2024/03/17 05:51:43;;;;;;;29.58;5.28;;;;;;;7.56;98.93;98765.63;4163844;28;20248;-90
2024/03/17 05:53:45;;;;;;;47.30;5.88;;;;;;;7.58;99.28;98763.84;4199708;28;20748;-91
2024/03/17 05:55:48;;;;;;;16.40;5.15;;;;;;;7.57;100.00;98773.34;4201803;28;20203;-90
2024/03/17 05:57:50;;;;;;;30.92;3.80;;;;;;;7.55;99.92;98764.81;4187457;28;20654;-91
2024/03/17 05:59:52;;;;;;;9.95;3.42;;;;;;;7.54;99.64;98767.47;4186656;28;20270;-92
2024/03/17 06:01:55;;;;;;;16.02;3.65;;;;;;;7.51;98.75;98760.66;4200466;28;20252;-90
2024/03/17 06:03:57;;;;;;;18.90;3.90;;;;;;;7.53;98.52;98766.63;4168323;28;20696;-91
2024/03/17 06:06:00;;;;;;;35.05;4.75;;;;;;;7.57;99.09;98769.94;4201863;28;20225;-91
2024/03/17 06:08:02;;;;;;;22.20;4.50;;;;;;;7.61;100.00;98764.53;4203397;28;20720;-91
2024/03/17 06:10:05;;;;;;;24.25;4.03;;;;;;;7.63;99.63;98764.47;4172802;28;20189;-92
2024/03/17 06:12:10;;;;;;;18.00;4.10;;;;;;;7.65;99.93;98768.69;4183214;28;20213;-90
2024/03/17 06:14:13;;;;;;;21.90;4.30;;;;;;;7.69;99.88;98770.19;4184055;28;20207;-91
2024/03/17 06:16:15;;;;;;;24.35;3.70;;;;;;;7.72;99.67;98771.81;4187212;28;20221;-90
2024/03/17 06:18:18;;;;;;;18.45;4.00;;;;;;;7.75;100.00;98776.88;4203249;28;20200;-90
2024/03/17 06:20:20;;;;;;;28.98;4.90;;;;;;;7.80;99.60;98780.09;4183130;28;20948;-90
2024/03/17 06:22:23;;;;;;;22.52;4.07;;;;;;;7.83;99.40;98782.53;4197951;28;20240;-91
2024/03/17 06:24:25;;;;;;;21.02;3.70;;;;;;;7.80;98.26;98778.31;4183983;28;20198;-92
2024/03/17 06:26:31;;;;;;;24.67;4.85;;;;;;;7.79;99.13;98768.88;4199194;28;20197;-90
2024/03/17 06:28:35;;;;;;;46.78;5.47;;;;;;;7.81;98.33;98769.63;4182682;28;20205;-91
2024/03/17 06:30:36;;;;;;;33.35;5.05;;;;;;;7.80;97.35;98769.69;4163473;28;20240;-89
2024/03/17 06:32:39;;;;;;;27.65;4.82;;;;;;;7.80;97.79;98764.50;4182604;28;20213;-90
2024/03/17 06:34:41;;;;;;;34.50;6.65;;;;;;;7.85;97.29;98767.72;4188119;28;20209;-88
2024/03/17 06:36:43;;;;;;;49.55;5.65;;;;;;;7.84;97.14;98755.69;4186268;28;20602;-92
2024/03/17 06:38:47;;;;;;;28.20;4.70;;;;;;;7.84;98.83;98760.88;4201925;28;20204;-90
2024/03/17 06:40:49;;;;;;;29.88;4.65;;;;;;;7.88;98.73;98762.38;4182851;28;20213;-92
2024/03/17 06:42:52;;;;;;;21.10;4.90;;;;;;;7.91;98.35;98759.66;4199134;28;20208;-91
2024/03/17 06:44:55;;;;;;;17.92;4.30;;;;;;;7.92;96.85;98758.75;4188674;28;20206;-92
2024/03/17 06:46:58;;;;;;;22.77;4.45;;;;;;;7.98;96.66;98754.97;4204891;28;20213;-92
2024/03/17 06:48:59;;;;;;;18.38;4.22;;;;;;;7.99;97.16;98748.81;4180500;28;20735;-92
2024/03/17 06:51:02;;;;;;;17.58;5.10;;;;;;;8.03;96.55;98752.97;4202940;28;20190;-91
2024/03/17 06:53:04;;;;;;;16.23;4.55;;;;;;;8.08;96.46;98752.75;4166905;28;20713;-91
2024/03/17 06:55:07;;;;;;;12.25;2.70;;;;;;;8.12;96.56;98752.56;4197483;28;20196;-88
2024/03/17 06:57:09;;;;;;;8.95;2.58;;;;;;;8.19;96.16;98750.50;4201241;28;20200;-91
2024/03/17 06:59:12;;;;;;;8.05;2.50;;;;;;;8.32;97.21;98749.00;4189132;28;20674;-92
2024/03/17 07:01:17;;;;;;;10.43;3.40;;;;;;;8.45;96.79;98758.72;4190687;28;20678;-91
2024/03/17 07:03:19;;;;;;;9.82;3.63;;;;;;;8.46;96.37;98753.47;4171470;28;20205;-92
2024/03/17 07:05:22;;;;;;;11.23;3.55;;;;;;;8.61;97.29;98764.84;4172604;28;21498;-91
2024/03/17 07:07:23;;;;;;;12.85;3.85;;;;;;;8.78;98.29;98770.91;4189648;28;20228;-93
2024/03/17 07:09:26;;;;;;;18.80;4.35;;;;;;;8.88;98.17;98766.06;4181431;28;20202;-92
2024/03/17 07:11:28;;;;;;;18.15;4.55;;;;;;;8.96;97.66;98770.78;4168355;28;20258;-92
2024/03/17 07:13:31;;;;;;;14.57;5.00;;;;;;;9.05;97.42;98770.31;4189662;28;20267;-91
2024/03/17 07:15:33;;;;;;;39.90;5.95;;;;;;;9.13;97.77;98768.16;4203179;28;20209;-89
2024/03/17 07:17:38;;;;;;;33.00;5.07;;;;;;;9.18;96.78;98773.97;4190701;28;20224;-91
2024/03/17 07:19:40;;;;;;;25.43;5.10;;;;;;;9.22;96.26;98775.50;4189336;28;20197;-90
2024/03/17 07:21:42;;;;;;;22.13;5.30;;;;;;;9.27;96.51;98772.66;4191400;28;20669;-91
2024/03/17 07:23:44;;;;;;;35.50;6.00;;;;;;;9.31;97.16;98767.19;4187710;28;20204;-92
2024/03/17 07:25:52;;;;;;;29.40;6.72;;;;;;;9.40;96.86;98769.31;4210146;28;20290;-90
2024/03/17 07:27:54;;;;;;;16.08;5.72;;;;;;;9.38;96.32;98774.63;4180651;28;20255;-91
2024/03/17 07:29:59;;;;;;;38.67;6.78;;;;;;;9.38;95.94;98759.91;4185664;28;20212;-90
2024/03/17 07:32:00;;;;;;;14.07;6.70;;;;;;;9.46;95.64;98764.63;4205392;28;20220;-91
2024/03/17 07:34:03;;;;;;;18.73;5.93;;;;;;;9.62;95.78;98773.31;4189822;28;20239;-91
2024/03/17 07:36:08;;;;;;;35.78;8.25;;;;;;;9.73;95.24;98780.56;4190750;28;20267;-91
2024/03/17 07:38:10;;;;;;;32.03;6.65;;;;;;;9.84;96.18;98778.19;4165536;28;20206;-92
2024/03/17 07:40:13;;;;;;;14.13;5.68;;;;;;;9.91;96.22;98772.56;4200852;28;20212;-91
2024/03/17 07:42:16;;;;;;;13.95;5.25;;;;;;;10.03;96.52;98780.59;4190979;28;20212;-92
2024/03/17 07:44:19;;;;;;;9.13;4.70;;;;;;;10.15;95.12;98779.91;4189051;28;20234;-91
2024/03/17 07:46:20;;;;;;;30.95;5.88;;;;;;;10.23;95.21;98774.28;4175071;28;20616;-90
2024/03/17 07:48:23;;;;;;;15.70;6.15;;;;;;;10.29;95.03;98773.94;4172514;28;20715;-91
2024/03/17 07:50:26;;;;;;;21.80;6.47;;;;;;;10.35;94.97;98782.22;4185866;28;20258;-90
2024/03/17 07:52:30;;;;;;;46.43;7.63;;;;;;;10.37;94.36;98775.16;4207061;28;20781;-93
2024/03/17 07:54:35;;;;;;;31.83;7.25;;;;;;;10.35;94.34;98777.03;4188485;28;20647;-90
2024/03/17 07:56:37;;;;;;;21.60;6.37;;;;;;;10.48;96.01;98778.84;4185848;28;20247;-90
2024/03/17 07:58:40;;;;;;;8.57;6.70;;;;;;;10.51;96.62;98786.50;4199719;28;20618;-89
2024/03/17 08:00:41;;;;;;;11.40;6.80;;;;;;;10.60;95.35;98782.50;4207685;28;20710;-90
2024/03/17 08:02:46;;;;;;;10.30;6.17;;;;;;;10.61;93.99;98785.03;4191342;28;20688;-88
2024/03/17 08:04:48;;;;;;;12.90;6.80;;;;;;;10.54;95.49;98777.63;4189159;28;20624;-89
2024/03/17 08:06:52;;;;;;;13.13;6.43;;;;;;;10.51;96.49;98775.22;4187283;28;20661;-91
2024/03/17 08:08:54;;;;;;;10.50;6.23;;;;;;;10.65;96.04;98785.72;4187651;28;20624;-89
2024/03/17 08:10:57;;;;;;;10.57;5.80;;;;;;;10.94;97.01;98783.06;4205978;28;21195;-90
2024/03/17 08:12:58;;;;;;;8.17;6.10;;;;;;;11.27;98.05;98791.53;4193341;28;20644;-92
2024/03/17 08:15:01;;;;;;;8.43;6.30;;;;;;;11.53;96.38;98789.03;4182308;28;20627;-91
2024/03/17 08:17:06;;;;;;;7.70;5.57;;;;;;;11.79;96.87;98784.75;4189905;28;21045;-91
2024/03/17 08:19:09;;;;;;;6.10;4.93;;;;;;;12.02;95.21;98789.38;4203901;28;20660;-94
2024/03/17 08:21:12;;;;;;;7.50;5.00;;;;;;;12.26;95.93;98790.44;4192466;28;20661;-92
2024/03/17 08:23:16;;;;;;;6.73;5.60;;;;;;;12.37;93.87;98785.34;4174187;28;21435;-90
2024/03/17 08:25:18;;;;;;;8.60;5.73;;;;;;;12.38;93.71;98781.81;4173555;28;20613;-89
2024/03/17 08:27:22;;;;;;;7.40;5.87;;;;;;;12.31;93.06;98780.50;4204084;28;20615;-91
2024/03/17 08:29:24;;;;;;;8.57;5.80;;;;;;;12.36;93.06;98775.84;4200420;28;20614;-91
2024/03/17 08:31:27;;;;;;;6.37;5.43;;;;;;;12.46;94.04;98774.28;4184458;28;21405;-85
2024/03/17 08:33:29;;;;;;;7.10;5.97;;;;;;;12.54;94.04;98766.78;4202623;28;20653;-84
2024/03/17 08:35:31;;;;;;;8.57;5.60;;;;;;;12.67;93.47;98765.03;4196162;28;20715;-84
2024/03/17 08:37:32;;;;;;;6.10;5.20;;;;;;;12.71;92.97;98767.34;4173238;28;20639;-84
2024/03/17 08:39:36;;;;;;;7.40;6.27;;;;;;;12.75;92.41;98769.66;4190712;28;21015;-84
2024/03/17 08:41:39;;;;;;;9.33;6.73;;;;;;;12.77;92.70;98772.19;4190055;28;20616;-85
2024/03/17 08:43:43;;;;;;;8.40;6.77;;;;;;;12.83;93.46;98770.03;4174535;28;21378;-84
2024/03/17 08:45:55;;;;;;;9.50;6.73;;;;;;;12.85;94.15;98781.25;4182056;28;20625;-85
2024/03/17 08:47:57;;;;;;;8.50;6.60;;;;;;;12.90;93.57;98771.31;4168460;28;21257;-84
2024/03/17 08:50:03;;;;;;;9.20;6.80;;;;;;;13.02;92.70;98780.09;4186832;28;20632;-82
2024/03/17 08:52:06;;;;;;;8.43;6.37;;;;;;;13.05;92.86;98774.66;4184164;28;20741;-82
2024/03/17 08:54:08;;;;;;;8.03;6.10;;;;;;;13.14;92.62;98777.53;4168074;28;20624;-83
2024/03/17 08:56:11;;;;;;;8.40;7.10;;;;;;;13.18;92.37;98776.34;4182572;28;20717;-82
2024/03/17 08:58:13;;;;;;;9.80;6.70;;;;;;;13.30;92.29;98767.66;4185274;28;20614;-82
2024/03/17 09:00:16;;;;;;;8.33;6.90;;;;;;;13.35;92.78;98776.91;4190309;28;20641;-83
2024/03/17 09:02:19;;;;;;;10.43;7.87;;;;;;;13.40;93.02;98777.41;4198438;28;21180;-83
2024/03/17 09:04:22;;;;;;;10.83;8.37;;;;;;;13.47;92.36;98775.19;4199209;28;20634;-83
2024/03/17 09:06:29;;;;;;;9.23;7.93;;;;;;;13.53;91.23;98777.41;4204297;28;20639;-82
2024/03/17 09:08:33;;;;;;;10.17;8.10;;;;;;;13.59;91.39;98767.34;4205606;28;21002;-83
2024/03/17 09:10:40;;;;;;;11.80;9.07;;;;;;;13.68;92.59;98774.53;4189636;28;20646;-83
2024/03/17 09:12:50;;;;;;;11.00;9.10;;;;;;;13.62;89.89;98766.28;4186914;28;20714;-83
2024/03/17 09:14:53;;;;;;;14.10;10.00;;;;;;;13.52;90.40;98760.03;4203646;28;20729;-84
2024/03/17 09:16:58;;;;;;;12.33;10.20;;;;;;;13.51;90.08;98767.03;4185988;28;20670;-83
2024/03/17 09:19:00;;;;;;;10.97;9.30;;;;;;;13.54;90.48;98761.56;4205208;28;20634;-83
2024/03/17 09:21:03;;;;;;;12.30;9.40;;;;;;;13.58;90.02;98755.19;4205054;28;20620;-83
2024/03/17 09:23:06;;;;;;;12.33;9.43;;;;;;;13.62;89.53;98751.41;4170388;28;20630;-82
2024/03/17 09:25:08;;;;;;;11.83;8.60;;;;;;;13.67;89.18;98755.38;4207235;28;20628;-82
2024/03/17 09:27:10;;;;;;;10.93;9.33;;;;;;;13.84;89.93;98751.56;4188242;28;20632;-82
2024/03/17 09:29:15;;;;;;;13.63;10.90;;;;;;;13.98;89.79;98744.41;4197075;28;20612;-83
2024/03/17 09:31:17;;;;;;;9.82;8.70;;;;;;;14.07;87.05;98751.63;4193810;28;20734;-83
2024/03/17 09:33:20;;;;;;;12.50;10.60;;;;;;;14.11;87.95;98749.63;4170203;28;20224;-83
2024/03/17 09:35:22;;;;;;;10.20;8.90;;;;;;;14.18;88.01;98747.28;4190338;28;20623;-82
2024/03/17 09:37:24;;;;;;;10.70;9.27;;;;;;;14.18;87.59;98747.28;4170825;28;20708;-83